sensor_id;sensor_type;location;lat;lon;timestamp;P1;durP1;ratioP1;P2;durP2;ratioP2
51034;SDS011;37062;52.546;13.230;2024-03-02T00:00:50;48.45;;;30.05;;
51034;SDS011;37062;52.546;13.230;2024-03-02T00:03:19;40.45;;;25.38;;
51034;SDS011;37062;52.546;13.230;2024-03-02T00:05:50;38.08;;;25.27;;
51034;SDS011;37062;52.546;13.230;2024-03-02T00:08:22;41.03;;;24.60;;
51034;SDS011;37062;52.546;13.230;2024-03-02T00:10:53;39.90;;;24.60;;
51034;SDS011;37062;52.546;13.230;2024-03-02T00:13:26;51.17;;;28.17;;
51034;SDS011;37062;52.546;13.230;2024-03-02T00:15:54;46.20;;;28.38;;
51034;SDS011;37062;52.546;13.230;2024-03-02T00:18:25;42.95;;;27.60;;
51034;SDS011;37062;52.546;13.230;2024-03-02T00:20:56;42.05;;;26.23;;
51034;SDS011;37062;52.546;13.230;2024-03-02T00:23:27;45.22;;;27.90;;
51034;SDS011;37062;52.546;13.230;2024-03-02T00:25:57;40.60;;;25.90;;
51034;SDS011;37062;52.546;13.230;2024-03-02T00:28:26;39.38;;;25.35;;
51034;SDS011;37062;52.546;13.230;2024-03-02T00:30:59;42.75;;;27.70;;
51034;SDS011;37062;52.546;13.230;2024-03-02T00:33:31;43.67;;;26.95;;
51034;SDS011;37062;52.546;13.230;2024-03-02T00:36:04;42.40;;;27.17;;
51034;SDS011;37062;52.546;13.230;2024-03-02T00:38:33;46.28;;;28.05;;
51034;SDS011;37062;52.546;13.230;2024-03-02T00:41:04;45.38;;;27.50;;
51034;SDS011;37062;52.546;13.230;2024-03-02T00:43:44;44.58;;;29.58;;
51034;SDS011;37062;52.546;13.230;2024-03-02T00:46:15;44.13;;;28.23;;
51034;SDS011;37062;52.546;13.230;2024-03-02T00:48:50;43.72;;;28.73;;
51034;SDS011;37062;52.546;13.230;2024-03-02T00:51:24;42.97;;;28.38;;
51034;SDS011;37062;52.546;13.230;2024-03-02T00:53:53;41.75;;;27.95;;
51034;SDS011;37062;52.546;13.230;2024-03-02T00:56:23;45.65;;;28.92;;
51034;SDS011;37062;52.546;13.230;2024-03-02T00:58:52;71.40;;;36.53;;
51034;SDS011;37062;52.546;13.230;2024-03-02T01:01:21;45.47;;;28.77;;
51034;SDS011;37062;52.546;13.230;2024-03-02T01:03:50;43.28;;;28.85;;
51034;SDS011;37062;52.546;13.230;2024-03-02T01:06:19;45.63;;;29.17;;
51034;SDS011;37062;52.546;13.230;2024-03-02T01:08:50;49.35;;;29.13;;
51034;SDS011;37062;52.546;13.230;2024-03-02T01:11:19;48.30;;;29.88;;
51034;SDS011;37062;52.546;13.230;2024-03-02T01:13:50;48.15;;;29.48;;
51034;SDS011;37062;52.546;13.230;2024-03-02T01:16:19;44.38;;;29.60;;
51034;SDS011;37062;52.546;13.230;2024-03-02T01:18:48;53.65;;;32.05;;
51034;SDS011;37062;52.546;13.230;2024-03-02T01:21:17;46.35;;;29.05;;
51034;SDS011;37062;52.546;13.230;2024-03-02T01:23:45;53.03;;;29.23;;
51034;SDS011;37062;52.546;13.230;2024-03-02T01:26:15;51.17;;;29.23;;
51034;SDS011;37062;52.546;13.230;2024-03-02T01:28:43;51.00;;;29.75;;
51034;SDS011;37062;52.546;13.230;2024-03-02T01:31:11;50.60;;;30.90;;
51034;SDS011;37062;52.546;13.230;2024-03-02T01:33:40;55.83;;;31.90;;
51034;SDS011;37062;52.546;13.230;2024-03-02T01:36:08;52.50;;;31.13;;
51034;SDS011;37062;52.546;13.230;2024-03-02T01:38:36;52.40;;;31.30;;
51034;SDS011;37062;52.546;13.230;2024-03-02T01:41:05;51.70;;;31.67;;
51034;SDS011;37062;52.546;13.230;2024-03-02T01:43:35;47.90;;;29.45;;
51034;SDS011;37062;52.546;13.230;2024-03-02T01:46:07;55.10;;;31.75;;
51034;SDS011;37062;52.546;13.230;2024-03-02T01:48:35;63.22;;;33.15;;
51034;SDS011;37062;52.546;13.230;2024-03-02T01:51:04;58.72;;;33.65;;
51034;SDS011;37062;52.546;13.230;2024-03-02T01:53:33;62.60;;;35.28;;
51034;SDS011;37062;52.546;13.230;2024-03-02T01:56:02;73.38;;;38.80;;
51034;SDS011;37062;52.546;13.230;2024-03-02T01:58:30;80.93;;;38.70;;
51034;SDS011;37062;52.546;13.230;2024-03-02T02:01:00;79.22;;;39.45;;
51034;SDS011;37062;52.546;13.230;2024-03-02T02:03:29;78.35;;;39.97;;
51034;SDS011;37062;52.546;13.230;2024-03-02T02:05:57;69.80;;;39.47;;
51034;SDS011;37062;52.546;13.230;2024-03-02T02:08:25;74.35;;;37.67;;
51034;SDS011;37062;52.546;13.230;2024-03-02T02:10:53;73.13;;;39.20;;
51034;SDS011;37062;52.546;13.230;2024-03-02T02:13:22;69.32;;;37.28;;
51034;SDS011;37062;52.546;13.230;2024-03-02T02:15:50;72.57;;;39.47;;
51034;SDS011;37062;52.546;13.230;2024-03-02T02:18:21;65.63;;;37.13;;
51034;SDS011;37062;52.546;13.230;2024-03-02T02:20:49;66.75;;;36.20;;
51034;SDS011;37062;52.546;13.230;2024-03-02T02:23:19;61.88;;;35.70;;
51034;SDS011;37062;52.546;13.230;2024-03-02T02:25:47;63.70;;;37.38;;
51034;SDS011;37062;52.546;13.230;2024-03-02T02:28:15;59.10;;;33.88;;
51034;SDS011;37062;52.546;13.230;2024-03-02T02:30:43;61.35;;;36.03;;
51034;SDS011;37062;52.546;13.230;2024-03-02T02:33:12;57.30;;;35.67;;
51034;SDS011;37062;52.546;13.230;2024-03-02T02:35:40;55.92;;;35.50;;
51034;SDS011;37062;52.546;13.230;2024-03-02T02:38:09;62.00;;;35.92;;
51034;SDS011;37062;52.546;13.230;2024-03-02T02:40:38;62.35;;;37.28;;
51034;SDS011;37062;52.546;13.230;2024-03-02T02:43:07;62.50;;;37.72;;
51034;SDS011;37062;52.546;13.230;2024-03-02T02:45:35;60.28;;;35.42;;
51034;SDS011;37062;52.546;13.230;2024-03-02T02:48:04;61.67;;;38.20;;
51034;SDS011;37062;52.546;13.230;2024-03-02T02:50:33;65.40;;;39.55;;
51034;SDS011;37062;52.546;13.230;2024-03-02T02:53:01;63.88;;;37.85;;
51034;SDS011;37062;52.546;13.230;2024-03-02T02:55:30;65.80;;;40.38;;
51034;SDS011;37062;52.546;13.230;2024-03-02T02:57:59;60.20;;;37.97;;
51034;SDS011;37062;52.546;13.230;2024-03-02T03:00:28;57.95;;;36.80;;
51034;SDS011;37062;52.546;13.230;2024-03-02T03:02:56;70.10;;;39.58;;
51034;SDS011;37062;52.546;13.230;2024-03-02T03:05:25;55.58;;;35.20;;
51034;SDS011;37062;52.546;13.230;2024-03-02T03:07:53;50.03;;;32.78;;
51034;SDS011;37062;52.546;13.230;2024-03-02T03:10:22;60.03;;;37.72;;
51034;SDS011;37062;52.546;13.230;2024-03-02T03:12:52;52.53;;;33.72;;
51034;SDS011;37062;52.546;13.230;2024-03-02T03:15:24;51.70;;;33.30;;
51034;SDS011;37062;52.546;13.230;2024-03-02T03:17:53;52.33;;;35.00;;
51034;SDS011;37062;52.546;13.230;2024-03-02T03:20:21;56.95;;;34.63;;
51034;SDS011;37062;52.546;13.230;2024-03-02T03:22:51;53.10;;;34.67;;
51034;SDS011;37062;52.546;13.230;2024-03-02T03:25:19;57.83;;;36.65;;
51034;SDS011;37062;52.546;13.230;2024-03-02T03:27:47;51.75;;;33.42;;
51034;SDS011;37062;52.546;13.230;2024-03-02T03:30:16;60.65;;;38.67;;
51034;SDS011;37062;52.546;13.230;2024-03-02T03:32:46;54.88;;;37.45;;
51034;SDS011;37062;52.546;13.230;2024-03-02T03:35:14;52.35;;;35.45;;
51034;SDS011;37062;52.546;13.230;2024-03-02T03:37:42;59.42;;;39.17;;
51034;SDS011;37062;52.546;13.230;2024-03-02T03:40:11;59.42;;;38.75;;
51034;SDS011;37062;52.546;13.230;2024-03-02T03:42:40;62.05;;;39.75;;
51034;SDS011;37062;52.546;13.230;2024-03-02T03:45:09;58.08;;;37.33;;
51034;SDS011;37062;52.546;13.230;2024-03-02T03:47:37;56.15;;;38.25;;
51034;SDS011;37062;52.546;13.230;2024-03-02T03:50:07;57.22;;;37.90;;
51034;SDS011;37062;52.546;13.230;2024-03-02T03:52:36;58.47;;;36.95;;
51034;SDS011;37062;52.546;13.230;2024-03-02T03:55:04;50.03;;;34.67;;
51034;SDS011;37062;52.546;13.230;2024-03-02T03:57:33;54.40;;;35.92;;
51034;SDS011;37062;52.546;13.230;2024-03-02T04:00:02;52.35;;;35.25;;
51034;SDS011;37062;52.546;13.230;2024-03-02T04:02:40;47.17;;;32.95;;
51034;SDS011;37062;52.546;13.230;2024-03-02T04:05:09;52.75;;;33.92;;
51034;SDS011;37062;52.546;13.230;2024-03-02T04:07:38;49.30;;;32.92;;
51034;SDS011;37062;52.546;13.230;2024-03-02T04:10:08;50.92;;;33.85;;
51034;SDS011;37062;52.546;13.230;2024-03-02T04:12:37;50.72;;;33.97;;
51034;SDS011;37062;52.546;13.230;2024-03-02T04:15:05;49.90;;;34.33;;
51034;SDS011;37062;52.546;13.230;2024-03-02T04:17:34;42.92;;;30.75;;
51034;SDS011;37062;52.546;13.230;2024-03-02T04:20:03;46.42;;;31.50;;
51034;SDS011;37062;52.546;13.230;2024-03-02T04:22:34;52.40;;;34.53;;
51034;SDS011;37062;52.546;13.230;2024-03-02T04:25:03;46.70;;;32.55;;
51034;SDS011;37062;52.546;13.230;2024-03-02T04:27:33;52.88;;;33.50;;
51034;SDS011;37062;52.546;13.230;2024-03-02T04:30:02;52.17;;;34.95;;
51034;SDS011;37062;52.546;13.230;2024-03-02T04:32:32;49.00;;;34.55;;
51034;SDS011;37062;52.546;13.230;2024-03-02T04:35:02;52.75;;;34.25;;
51034;SDS011;37062;52.546;13.230;2024-03-02T04:37:31;52.03;;;33.90;;
51034;SDS011;37062;52.546;13.230;2024-03-02T04:40:02;45.80;;;31.70;;
51034;SDS011;37062;52.546;13.230;2024-03-02T04:42:34;43.33;;;30.63;;
51034;SDS011;37062;52.546;13.230;2024-03-02T04:45:02;50.70;;;32.50;;
51034;SDS011;37062;52.546;13.230;2024-03-02T04:47:31;45.63;;;30.35;;
51034;SDS011;37062;52.546;13.230;2024-03-02T04:49:59;44.67;;;30.23;;
51034;SDS011;37062;52.546;13.230;2024-03-02T04:52:28;46.40;;;32.10;;
51034;SDS011;37062;52.546;13.230;2024-03-02T04:54:57;43.25;;;31.23;;
51034;SDS011;37062;52.546;13.230;2024-03-02T04:57:42;44.20;;;31.40;;
51034;SDS011;37062;52.546;13.230;2024-03-02T05:00:11;45.70;;;32.15;;
51034;SDS011;37062;52.546;13.230;2024-03-02T05:02:39;43.63;;;30.15;;
51034;SDS011;37062;52.546;13.230;2024-03-02T05:05:08;44.95;;;31.10;;
51034;SDS011;37062;52.546;13.230;2024-03-02T05:07:36;43.25;;;30.58;;
51034;SDS011;37062;52.546;13.230;2024-03-02T05:10:06;47.63;;;32.63;;
51034;SDS011;37062;52.546;13.230;2024-03-02T05:12:35;45.17;;;31.48;;
51034;SDS011;37062;52.546;13.230;2024-03-02T05:15:23;47.50;;;31.00;;
51034;SDS011;37062;52.546;13.230;2024-03-02T05:17:52;44.33;;;30.35;;
51034;SDS011;37062;52.546;13.230;2024-03-02T05:20:20;48.47;;;32.92;;
51034;SDS011;37062;52.546;13.230;2024-03-02T05:22:48;50.70;;;32.97;;
51034;SDS011;37062;52.546;13.230;2024-03-02T05:25:18;41.58;;;29.67;;
51034;SDS011;37062;52.546;13.230;2024-03-02T05:27:47;47.35;;;32.60;;
51034;SDS011;37062;52.546;13.230;2024-03-02T05:30:15;44.40;;;31.23;;
51034;SDS011;37062;52.546;13.230;2024-03-02T05:32:43;44.60;;;32.00;;
51034;SDS011;37062;52.546;13.230;2024-03-02T05:35:11;46.63;;;31.38;;
51034;SDS011;37062;52.546;13.230;2024-03-02T05:37:40;45.55;;;31.63;;
51034;SDS011;37062;52.546;13.230;2024-03-02T05:40:08;49.83;;;33.10;;
51034;SDS011;37062;52.546;13.230;2024-03-02T05:42:39;46.17;;;32.28;;
51034;SDS011;37062;52.546;13.230;2024-03-02T05:45:08;45.58;;;32.00;;
51034;SDS011;37062;52.546;13.230;2024-03-02T05:47:36;47.13;;;30.63;;
51034;SDS011;37062;52.546;13.230;2024-03-02T05:50:05;46.67;;;32.85;;
51034;SDS011;37062;52.546;13.230;2024-03-02T05:52:34;50.55;;;33.42;;
51034;SDS011;37062;52.546;13.230;2024-03-02T05:55:03;44.22;;;31.00;;
51034;SDS011;37062;52.546;13.230;2024-03-02T05:57:31;49.35;;;33.00;;
51034;SDS011;37062;52.546;13.230;2024-03-02T06:00:16;48.70;;;32.13;;
51034;SDS011;37062;52.546;13.230;2024-03-02T06:02:45;48.28;;;31.92;;
51034;SDS011;37062;52.546;13.230;2024-03-02T06:05:13;50.08;;;32.75;;
51034;SDS011;37062;52.546;13.230;2024-03-02T06:07:42;44.13;;;29.38;;
51034;SDS011;37062;52.546;13.230;2024-03-02T06:10:11;45.28;;;31.02;;
51034;SDS011;37062;52.546;13.230;2024-03-02T06:12:40;49.42;;;33.90;;
51034;SDS011;37062;52.546;13.230;2024-03-02T06:15:09;47.40;;;31.83;;
51034;SDS011;37062;52.546;13.230;2024-03-02T06:17:38;48.88;;;32.83;;
51034;SDS011;37062;52.546;13.230;2024-03-02T06:20:07;46.63;;;32.38;;
51034;SDS011;37062;52.546;13.230;2024-03-02T06:22:37;49.08;;;30.17;;
51034;SDS011;37062;52.546;13.230;2024-03-02T06:25:05;47.05;;;31.77;;
51034;SDS011;37062;52.546;13.230;2024-03-02T06:27:35;47.75;;;31.20;;
51034;SDS011;37062;52.546;13.230;2024-03-02T06:30:03;44.30;;;29.75;;
51034;SDS011;37062;52.546;13.230;2024-03-02T06:32:32;42.58;;;29.85;;
51034;SDS011;37062;52.546;13.230;2024-03-02T06:35:03;45.88;;;30.08;;
51034;SDS011;37062;52.546;13.230;2024-03-02T06:37:34;43.83;;;30.33;;
51034;SDS011;37062;52.546;13.230;2024-03-02T06:40:02;45.70;;;30.15;;
51034;SDS011;37062;52.546;13.230;2024-03-02T06:42:34;44.60;;;29.75;;
51034;SDS011;37062;52.546;13.230;2024-03-02T06:45:03;45.00;;;29.95;;
51034;SDS011;37062;52.546;13.230;2024-03-02T06:47:32;44.60;;;30.10;;
51034;SDS011;37062;52.546;13.230;2024-03-02T06:50:00;45.45;;;30.77;;
51034;SDS011;37062;52.546;13.230;2024-03-02T06:52:30;49.20;;;31.88;;
51034;SDS011;37062;52.546;13.230;2024-03-02T06:54:58;48.30;;;32.03;;
51034;SDS011;37062;52.546;13.230;2024-03-02T06:57:26;45.90;;;30.38;;
51034;SDS011;37062;52.546;13.230;2024-03-02T06:59:55;44.50;;;29.77;;
51034;SDS011;37062;52.546;13.230;2024-03-02T07:02:25;45.38;;;31.20;;
51034;SDS011;37062;52.546;13.230;2024-03-02T07:04:54;46.05;;;31.15;;
51034;SDS011;37062;52.546;13.230;2024-03-02T07:07:22;46.63;;;30.98;;
51034;SDS011;37062;52.546;13.230;2024-03-02T07:09:52;44.17;;;30.45;;
51034;SDS011;37062;52.546;13.230;2024-03-02T07:12:20;45.17;;;29.30;;
51034;SDS011;37062;52.546;13.230;2024-03-02T07:14:48;46.35;;;30.48;;
51034;SDS011;37062;52.546;13.230;2024-03-02T07:17:34;47.22;;;30.92;;
51034;SDS011;37062;52.546;13.230;2024-03-02T07:20:03;48.13;;;31.30;;
51034;SDS011;37062;52.546;13.230;2024-03-02T07:22:33;49.03;;;31.40;;
51034;SDS011;37062;52.546;13.230;2024-03-02T07:25:03;44.35;;;27.65;;
51034;SDS011;37062;52.546;13.230;2024-03-02T07:27:33;45.60;;;29.48;;
51034;SDS011;37062;52.546;13.230;2024-03-02T07:30:02;48.40;;;31.10;;
51034;SDS011;37062;52.546;13.230;2024-03-02T07:32:31;48.80;;;29.42;;
51034;SDS011;37062;52.546;13.230;2024-03-02T07:34:59;45.17;;;29.98;;
51034;SDS011;37062;52.546;13.230;2024-03-02T07:37:27;44.85;;;28.90;;
51034;SDS011;37062;52.546;13.230;2024-03-02T07:39:56;43.60;;;29.88;;
51034;SDS011;37062;52.546;13.230;2024-03-02T07:42:26;43.40;;;28.77;;
51034;SDS011;37062;52.546;13.230;2024-03-02T07:44:54;47.38;;;31.52;;
51034;SDS011;37062;52.546;13.230;2024-03-02T07:47:22;45.40;;;30.45;;
51034;SDS011;37062;52.546;13.230;2024-03-02T07:49:51;43.88;;;29.35;;
51034;SDS011;37062;52.546;13.230;2024-03-02T07:52:19;47.28;;;31.70;;
51034;SDS011;37062;52.546;13.230;2024-03-02T07:54:47;49.75;;;31.98;;
51034;SDS011;37062;52.546;13.230;2024-03-02T07:57:16;47.42;;;31.75;;
51034;SDS011;37062;52.546;13.230;2024-03-02T07:59:45;41.55;;;29.38;;
51034;SDS011;37062;52.546;13.230;2024-03-02T08:02:14;49.15;;;31.15;;
51034;SDS011;37062;52.546;13.230;2024-03-02T08:04:43;47.78;;;31.48;;
51034;SDS011;37062;52.546;13.230;2024-03-02T08:07:12;47.40;;;31.70;;
51034;SDS011;37062;52.546;13.230;2024-03-02T08:09:40;52.88;;;33.05;;
51034;SDS011;37062;52.546;13.230;2024-03-02T08:12:09;43.97;;;30.30;;
51034;SDS011;37062;52.546;13.230;2024-03-02T08:14:37;49.28;;;31.33;;
51034;SDS011;37062;52.546;13.230;2024-03-02T08:17:08;54.00;;;31.92;;
51034;SDS011;37062;52.546;13.230;2024-03-02T08:19:37;47.47;;;32.42;;
51034;SDS011;37062;52.546;13.230;2024-03-02T08:22:06;44.90;;;31.50;;
51034;SDS011;37062;52.546;13.230;2024-03-02T08:24:35;50.00;;;32.28;;
51034;SDS011;37062;52.546;13.230;2024-03-02T08:27:04;44.13;;;30.63;;
51034;SDS011;37062;52.546;13.230;2024-03-02T08:29:32;47.85;;;30.50;;
51034;SDS011;37062;52.546;13.230;2024-03-02T08:32:00;46.78;;;30.60;;
51034;SDS011;37062;52.546;13.230;2024-03-02T08:34:30;48.58;;;32.25;;
51034;SDS011;37062;52.546;13.230;2024-03-02T08:36:58;48.42;;;33.03;;
51034;SDS011;37062;52.546;13.230;2024-03-02T08:39:27;50.15;;;32.58;;
51034;SDS011;37062;52.546;13.230;2024-03-02T08:41:55;46.10;;;30.80;;
51034;SDS011;37062;52.546;13.230;2024-03-02T08:44:24;47.05;;;32.08;;
51034;SDS011;37062;52.546;13.230;2024-03-02T08:46:52;48.85;;;30.58;;
51034;SDS011;37062;52.546;13.230;2024-03-02T08:49:20;41.33;;;28.73;;
51034;SDS011;37062;52.546;13.230;2024-03-02T08:51:50;44.65;;;29.60;;
51034;SDS011;37062;52.546;13.230;2024-03-02T08:54:21;48.47;;;31.35;;
51034;SDS011;37062;52.546;13.230;2024-03-02T08:56:50;48.60;;;31.10;;
51034;SDS011;37062;52.546;13.230;2024-03-02T08:59:18;41.75;;;28.33;;
51034;SDS011;37062;52.546;13.230;2024-03-02T09:01:46;42.40;;;28.10;;
51034;SDS011;37062;52.546;13.230;2024-03-02T09:04:15;44.33;;;29.13;;
51034;SDS011;37062;52.546;13.230;2024-03-02T09:06:43;44.08;;;29.75;;
51034;SDS011;37062;52.546;13.230;2024-03-02T09:09:13;43.58;;;29.40;;
51034;SDS011;37062;52.546;13.230;2024-03-02T09:11:41;43.50;;;29.40;;
51034;SDS011;37062;52.546;13.230;2024-03-02T09:14:09;40.35;;;27.83;;
51034;SDS011;37062;52.546;13.230;2024-03-02T09:16:38;41.15;;;28.02;;
51034;SDS011;37062;52.546;13.230;2024-03-02T09:19:06;41.78;;;27.33;;
51034;SDS011;37062;52.546;13.230;2024-03-02T09:21:34;39.83;;;27.50;;
51034;SDS011;37062;52.546;13.230;2024-03-02T09:24:03;41.40;;;28.45;;
51034;SDS011;37062;52.546;13.230;2024-03-02T09:26:34;40.25;;;27.73;;
51034;SDS011;37062;52.546;13.230;2024-03-02T09:29:03;44.92;;;29.17;;
51034;SDS011;37062;52.546;13.230;2024-03-02T09:31:32;42.05;;;28.15;;
51034;SDS011;37062;52.546;13.230;2024-03-02T09:34:02;45.45;;;29.23;;
51034;SDS011;37062;52.546;13.230;2024-03-02T09:36:31;44.20;;;30.42;;
51034;SDS011;37062;52.546;13.230;2024-03-02T09:38:59;42.05;;;29.33;;
51034;SDS011;37062;52.546;13.230;2024-03-02T09:41:27;43.28;;;28.33;;
51034;SDS011;37062;52.546;13.230;2024-03-02T09:43:57;42.70;;;28.05;;
51034;SDS011;37062;52.546;13.230;2024-03-02T09:46:25;42.97;;;28.50;;
51034;SDS011;37062;52.546;13.230;2024-03-02T09:48:53;42.22;;;27.77;;
51034;SDS011;37062;52.546;13.230;2024-03-02T09:51:22;42.20;;;28.67;;
51034;SDS011;37062;52.546;13.230;2024-03-02T09:53:51;45.30;;;28.67;;
51034;SDS011;37062;52.546;13.230;2024-03-02T09:56:23;42.88;;;27.33;;
51034;SDS011;37062;52.546;13.230;2024-03-02T09:58:51;39.15;;;26.92;;
51034;SDS011;37062;52.546;13.230;2024-03-02T10:01:21;39.17;;;27.02;;
51034;SDS011;37062;52.546;13.230;2024-03-02T10:03:50;36.30;;;24.90;;
51034;SDS011;37062;52.546;13.230;2024-03-02T10:06:19;33.55;;;24.13;;
51034;SDS011;37062;52.546;13.230;2024-03-02T10:08:48;40.22;;;26.48;;
51034;SDS011;37062;52.546;13.230;2024-03-02T10:11:26;36.95;;;25.63;;
51034;SDS011;37062;52.546;13.230;2024-03-02T10:14:05;36.65;;;25.80;;
51034;SDS011;37062;52.546;13.230;2024-03-02T10:16:39;37.58;;;25.40;;
51034;SDS011;37062;52.546;13.230;2024-03-02T10:19:15;39.25;;;26.08;;
51034;SDS011;37062;52.546;13.230;2024-03-02T10:21:45;32.58;;;24.00;;
51034;SDS011;37062;52.546;13.230;2024-03-02T10:24:15;34.88;;;23.83;;
51034;SDS011;37062;52.546;13.230;2024-03-02T10:26:44;33.70;;;24.17;;
51034;SDS011;37062;52.546;13.230;2024-03-02T10:29:12;33.10;;;23.35;;
51034;SDS011;37062;52.546;13.230;2024-03-02T10:31:43;33.60;;;22.75;;
51034;SDS011;37062;52.546;13.230;2024-03-02T10:34:12;30.05;;;20.67;;
51034;SDS011;37062;52.546;13.230;2024-03-02T10:36:43;29.67;;;21.33;;
51034;SDS011;37062;52.546;13.230;2024-03-02T10:39:12;30.20;;;22.05;;
51034;SDS011;37062;52.546;13.230;2024-03-02T10:41:41;32.20;;;20.85;;
51034;SDS011;37062;52.546;13.230;2024-03-02T10:44:11;28.55;;;20.33;;
51034;SDS011;37062;52.546;13.230;2024-03-02T10:46:41;28.00;;;20.80;;
51034;SDS011;37062;52.546;13.230;2024-03-02T10:49:12;28.73;;;20.80;;
51034;SDS011;37062;52.546;13.230;2024-03-02T10:51:41;30.48;;;21.15;;
51034;SDS011;37062;52.546;13.230;2024-03-02T10:54:09;27.92;;;20.38;;
51034;SDS011;37062;52.546;13.230;2024-03-02T10:56:38;27.40;;;20.10;;
51034;SDS011;37062;52.546;13.230;2024-03-02T10:59:11;26.05;;;19.58;;
51034;SDS011;37062;52.546;13.230;2024-03-02T11:01:46;26.15;;;18.58;;
51034;SDS011;37062;52.546;13.230;2024-03-02T11:04:16;28.15;;;18.30;;
51034;SDS011;37062;52.546;13.230;2024-03-02T11:06:47;25.40;;;18.42;;
51034;SDS011;37062;52.546;13.230;2024-03-02T11:09:18;23.73;;;17.73;;
51034;SDS011;37062;52.546;13.230;2024-03-02T11:11:53;25.67;;;19.20;;
51034;SDS011;37062;52.546;13.230;2024-03-02T11:14:29;25.25;;;18.00;;
51034;SDS011;37062;52.546;13.230;2024-03-02T11:17:01;27.08;;;18.48;;
51034;SDS011;37062;52.546;13.230;2024-03-02T11:19:31;28.90;;;18.92;;
51034;SDS011;37062;52.546;13.230;2024-03-02T11:22:01;26.23;;;19.45;;
51034;SDS011;37062;52.546;13.230;2024-03-02T11:24:31;24.42;;;17.58;;
51034;SDS011;37062;52.546;13.230;2024-03-02T11:27:04;26.77;;;18.70;;
51034;SDS011;37062;52.546;13.230;2024-03-02T11:29:44;24.98;;;16.77;;
51034;SDS011;37062;52.546;13.230;2024-03-02T11:32:15;24.10;;;18.02;;
51034;SDS011;37062;52.546;13.230;2024-03-02T11:34:45;26.98;;;18.52;;
51034;SDS011;37062;52.546;13.230;2024-03-02T11:37:16;22.58;;;16.02;;
51034;SDS011;37062;52.546;13.230;2024-03-02T11:39:45;24.60;;;18.90;;
51034;SDS011;37062;52.546;13.230;2024-03-02T11:42:15;23.95;;;17.52;;
51034;SDS011;37062;52.546;13.230;2024-03-02T11:44:44;20.95;;;15.73;;
51034;SDS011;37062;52.546;13.230;2024-03-02T11:47:16;19.38;;;15.77;;
51034;SDS011;37062;52.546;13.230;2024-03-02T11:49:45;25.35;;;17.35;;
51034;SDS011;37062;52.546;13.230;2024-03-02T11:52:16;21.98;;;16.63;;
51034;SDS011;37062;52.546;13.230;2024-03-02T11:54:46;20.50;;;15.68;;
51034;SDS011;37062;52.546;13.230;2024-03-02T11:57:15;23.17;;;16.50;;
51034;SDS011;37062;52.546;13.230;2024-03-02T11:59:44;23.38;;;16.85;;
51034;SDS011;37062;52.546;13.230;2024-03-02T12:02:18;25.85;;;18.05;;
51034;SDS011;37062;52.546;13.230;2024-03-02T12:04:47;24.10;;;17.80;;
51034;SDS011;37062;52.546;13.230;2024-03-02T12:07:20;24.00;;;16.77;;
51034;SDS011;37062;52.546;13.230;2024-03-02T12:09:49;22.63;;;16.90;;
51034;SDS011;37062;52.546;13.230;2024-03-02T12:12:28;23.98;;;16.20;;
51034;SDS011;37062;52.546;13.230;2024-03-02T12:14:57;20.95;;;15.15;;
51034;SDS011;37062;52.546;13.230;2024-03-02T12:17:28;22.25;;;15.43;;
51034;SDS011;37062;52.546;13.230;2024-03-02T12:19:57;19.85;;;15.10;;
51034;SDS011;37062;52.546;13.230;2024-03-02T12:22:26;18.85;;;14.43;;
51034;SDS011;37062;52.546;13.230;2024-03-02T12:24:56;21.35;;;14.55;;
51034;SDS011;37062;52.546;13.230;2024-03-02T12:27:24;23.20;;;15.82;;
51034;SDS011;37062;52.546;13.230;2024-03-02T12:29:53;22.92;;;17.20;;
51034;SDS011;37062;52.546;13.230;2024-03-02T12:32:21;21.55;;;16.35;;
51034;SDS011;37062;52.546;13.230;2024-03-02T12:34:51;22.52;;;16.13;;
51034;SDS011;37062;52.546;13.230;2024-03-02T12:37:21;24.58;;;17.20;;
51034;SDS011;37062;52.546;13.230;2024-03-02T12:39:49;20.73;;;15.52;;
51034;SDS011;37062;52.546;13.230;2024-03-02T12:42:18;19.98;;;14.27;;
51034;SDS011;37062;52.546;13.230;2024-03-02T12:44:47;21.90;;;15.65;;
51034;SDS011;37062;52.546;13.230;2024-03-02T12:47:15;20.25;;;15.35;;
51034;SDS011;37062;52.546;13.230;2024-03-02T12:49:44;23.98;;;15.32;;
51034;SDS011;37062;52.546;13.230;2024-03-02T12:52:14;23.80;;;17.05;;
51034;SDS011;37062;52.546;13.230;2024-03-02T12:54:44;23.40;;;16.65;;
51034;SDS011;37062;52.546;13.230;2024-03-02T12:57:16;23.73;;;16.33;;
51034;SDS011;37062;52.546;13.230;2024-03-02T12:59:45;25.63;;;17.17;;
51034;SDS011;37062;52.546;13.230;2024-03-02T13:02:16;21.48;;;15.82;;
51034;SDS011;37062;52.546;13.230;2024-03-02T13:04:51;22.13;;;15.88;;
51034;SDS011;37062;52.546;13.230;2024-03-02T13:07:22;21.50;;;16.20;;
51034;SDS011;37062;52.546;13.230;2024-03-02T13:09:51;23.08;;;15.48;;
51034;SDS011;37062;52.546;13.230;2024-03-02T13:12:22;19.38;;;15.30;;
51034;SDS011;37062;52.546;13.230;2024-03-02T13:14:51;22.35;;;15.60;;
51034;SDS011;37062;52.546;13.230;2024-03-02T13:17:20;19.60;;;14.38;;
51034;SDS011;37062;52.546;13.230;2024-03-02T13:19:51;17.88;;;14.20;;
51034;SDS011;37062;52.546;13.230;2024-03-02T13:22:21;21.98;;;16.25;;
51034;SDS011;37062;52.546;13.230;2024-03-02T13:24:51;25.05;;;16.67;;
51034;SDS011;37062;52.546;13.230;2024-03-02T13:27:20;21.73;;;15.30;;
51034;SDS011;37062;52.546;13.230;2024-03-02T13:29:49;22.02;;;15.77;;
51034;SDS011;37062;52.546;13.230;2024-03-02T13:32:17;19.75;;;14.57;;
51034;SDS011;37062;52.546;13.230;2024-03-02T13:34:50;20.58;;;14.30;;
51034;SDS011;37062;52.546;13.230;2024-03-02T13:37:19;22.23;;;14.75;;
51034;SDS011;37062;52.546;13.230;2024-03-02T13:39:49;20.17;;;14.57;;
51034;SDS011;37062;52.546;13.230;2024-03-02T13:42:17;19.88;;;14.70;;
51034;SDS011;37062;52.546;13.230;2024-03-02T13:44:46;20.95;;;13.98;;
51034;SDS011;37062;52.546;13.230;2024-03-02T13:47:16;17.88;;;13.23;;
51034;SDS011;37062;52.546;13.230;2024-03-02T13:49:44;19.30;;;13.30;;
51034;SDS011;37062;52.546;13.230;2024-03-02T13:52:15;15.90;;;11.98;;
51034;SDS011;37062;52.546;13.230;2024-03-02T13:54:44;17.17;;;11.30;;
51034;SDS011;37062;52.546;13.230;2024-03-02T13:57:15;14.40;;;10.98;;
51034;SDS011;37062;52.546;13.230;2024-03-02T13:59:49;15.13;;;11.38;;
51034;SDS011;37062;52.546;13.230;2024-03-02T14:02:18;15.13;;;11.25;;
51034;SDS011;37062;52.546;13.230;2024-03-02T14:04:47;19.40;;;13.55;;
51034;SDS011;37062;52.546;13.230;2024-03-02T14:07:17;17.38;;;12.93;;
51034;SDS011;37062;52.546;13.230;2024-03-02T14:09:45;19.55;;;14.05;;
51034;SDS011;37062;52.546;13.230;2024-03-02T14:12:15;20.92;;;13.05;;
51034;SDS011;37062;52.546;13.230;2024-03-02T14:14:44;14.55;;;11.00;;
51034;SDS011;37062;52.546;13.230;2024-03-02T14:17:12;15.32;;;10.93;;
51034;SDS011;37062;52.546;13.230;2024-03-02T14:19:42;17.08;;;11.55;;
51034;SDS011;37062;52.546;13.230;2024-03-02T14:22:10;16.60;;;11.80;;